createdAt,value
2018-01-13T00:00:13.536Z,5.60
2018-01-13T00:02:41.804Z,5.50
2018-01-13T00:05:11.276Z,5.40
2018-01-13T00:07:40.257Z,5.60
2018-01-13T00:10:09.301Z,5.70
2018-01-13T00:12:38.473Z,5.70
2018-01-13T00:15:06.722Z,5.60
2018-01-13T00:17:35.934Z,5.50
2018-01-13T00:20:04.601Z,5.30
2018-01-13T00:22:38.663Z,5.20
2018-01-13T00:25:06.914Z,5.20
2018-01-13T00:27:35.226Z,5.10
2018-01-13T00:30:03.682Z,5.10
2018-01-13T00:32:31.945Z,5.10
2018-01-13T00:35:01.002Z,5.20
2018-01-13T00:37:29.304Z,5.20
2018-01-13T00:39:57.576Z,5.20
2018-01-13T00:42:27.344Z,5.40
2018-01-13T00:44:55.624Z,5.40
2018-01-13T00:47:23.861Z,5.40
2018-01-13T00:49:52.919Z,5.40
2018-01-13T00:52:21.330Z,5.40
2018-01-13T00:54:49.609Z,5.30
2018-01-13T00:57:18.684Z,5.20
2018-01-13T00:59:46.930Z,5.20
2018-01-13T01:02:15.195Z,5.20
2018-01-13T01:04:43.467Z,5.10
2018-01-13T01:07:11.794Z,5.20
2018-01-13T01:09:40.123Z,5.30
2018-01-13T01:12:09.144Z,5.20
2018-01-13T01:14:37.405Z,5.20
2018-01-13T01:17:05.807Z,5.20
2018-01-13T01:19:34.106Z,5.30
2018-01-13T01:22:02.339Z,5.40
2018-01-13T01:24:30.619Z,5.40
2018-01-13T01:26:58.874Z,5.30
2018-01-13T01:29:27.198Z,5.30
2018-01-13T01:31:55.434Z,5.20
2018-01-13T01:34:23.703Z,5.20
2018-01-13T01:36:51.977Z,5.20
2018-01-13T01:39:20.271Z,5.20
2018-01-13T01:41:49.277Z,5.30
2018-01-13T01:44:18.127Z,5.20
2018-01-13T01:46:47.161Z,5.20
2018-01-13T01:49:15.745Z,5.30
2018-01-13T01:51:43.991Z,5.20
2018-01-13T01:54:12.234Z,5.20
2018-01-13T01:56:40.485Z,5.20
2018-01-13T01:59:08.793Z,5.20
2018-01-13T02:01:37.028Z,5.20
2018-01-13T02:04:05.286Z,5.20
2018-01-13T02:06:33.573Z,5.40
2018-01-13T02:09:01.797Z,5.50
2018-01-13T02:11:30.104Z,5.50
2018-01-13T02:13:58.361Z,5.50
2018-01-13T02:16:26.623Z,5.40
2018-01-13T02:18:54.883Z,5.40
2018-01-13T02:21:23.272Z,5.40
2018-01-13T02:23:51.525Z,5.40
2018-01-13T02:26:19.766Z,5.40
2018-01-13T02:28:48.788Z,5.40
2018-01-13T02:31:17.070Z,5.40
2018-01-13T02:33:45.313Z,5.40
2018-01-13T02:36:13.603Z,5.30
2018-01-13T02:38:42.645Z,5.20
2018-01-13T02:41:10.904Z,5.20
2018-01-13T02:43:39.233Z,5.20
2018-01-13T02:46:08.325Z,5.20
2018-01-13T02:48:36.583Z,5.20
2018-01-13T02:51:04.849Z,5.20
2018-01-13T02:53:33.128Z,5.20
2018-01-13T02:56:01.385Z,5.20
2018-01-13T02:58:29.660Z,5.30
2018-01-13T03:00:57.882Z,5.30
2018-01-13T03:03:27.660Z,5.30
2018-01-13T03:05:55.954Z,5.30
2018-01-13T03:08:24.191Z,5.20
2018-01-13T03:10:53.614Z,5.20
2018-01-13T03:13:21.873Z,5.20
2018-01-13T03:15:50.860Z,5.20
2018-01-13T03:18:19.899Z,5.10
2018-01-13T03:20:48.154Z,5.10
2018-01-13T03:23:16.452Z,5.10
2018-01-13T03:25:44.678Z,5.20
2018-01-13T03:28:13.772Z,5.20
2018-01-13T03:30:42.028Z,5.20
2018-01-13T03:33:10.292Z,5.20
2018-01-13T03:35:39.409Z,5.10
2018-01-13T03:38:08.431Z,5.00
2018-01-13T03:40:37.482Z,4.90
2018-01-13T03:43:05.711Z,4.90
2018-01-13T03:45:34.700Z,4.90
2018-01-13T03:48:03.722Z,4.90
2018-01-13T03:50:32.511Z,4.90
2018-01-13T03:53:00.742Z,4.80
2018-01-13T03:55:29.064Z,4.90
2018-01-13T03:57:57.285Z,4.90
2018-01-13T04:00:26.724Z,4.80
2018-01-13T04:02:55.025Z,4.80
2018-01-13T04:05:24.132Z,4.90
2018-01-13T04:07:52.788Z,4.90
2018-01-13T04:10:21.042Z,4.90
2018-01-13T04:12:49.570Z,4.90
2018-01-13T04:15:17.828Z,4.80
2018-01-13T04:17:46.094Z,4.80
2018-01-13T04:20:15.103Z,4.80
2018-01-13T04:22:44.080Z,4.80
2018-01-13T04:25:13.167Z,4.80
2018-01-13T04:27:42.294Z,4.80
2018-01-13T04:30:10.573Z,4.80
2018-01-13T04:32:38.851Z,4.90
2018-01-13T04:35:07.090Z,4.80
2018-01-13T04:37:36.108Z,4.80
2018-01-13T04:40:05.147Z,4.90
2018-01-13T04:42:33.423Z,4.90
2018-01-13T04:45:01.680Z,4.90
2018-01-13T04:47:30.392Z,4.80
2018-01-13T04:49:58.627Z,4.80
2018-01-13T04:52:26.890Z,4.90
2018-01-13T04:54:55.921Z,4.80
2018-01-13T04:57:24.180Z,4.80
2018-01-13T04:59:52.410Z,4.80
2018-01-13T05:02:22.162Z,4.90
2018-01-13T05:04:50.388Z,5.00
2018-01-13T05:07:18.639Z,4.80
2018-01-13T05:09:46.916Z,4.90
2018-01-13T05:12:15.169Z,4.90
2018-01-13T05:14:43.449Z,4.90
2018-01-13T05:17:12.023Z,4.90
2018-01-13T05:19:41.029Z,5.00
2018-01-13T05:22:09.311Z,5.00
2018-01-13T05:24:37.558Z,5.00
2018-01-13T05:27:06.577Z,5.10
2018-01-13T05:29:34.840Z,5.10
2018-01-13T05:32:04.869Z,5.00
2018-01-13T05:34:33.162Z,5.00
2018-01-13T05:37:01.392Z,5.00
2018-01-13T05:39:29.682Z,4.90
2018-01-13T05:41:57.954Z,4.90
2018-01-13T05:44:26.263Z,5.00
2018-01-13T05:46:54.473Z,4.90
2018-01-13T05:49:22.727Z,5.00
2018-01-13T05:51:50.949Z,5.10
2018-01-13T05:54:20.194Z,5.10
2018-01-13T05:56:48.450Z,5.10
2018-01-13T05:59:17.463Z,5.20
2018-01-13T06:01:45.813Z,5.20
2018-01-13T06:04:14.847Z,5.30
2018-01-13T06:06:43.102Z,5.20
2018-01-13T06:09:12.128Z,5.20
2018-01-13T06:11:40.366Z,5.20
2018-01-13T06:14:09.376Z,5.10
2018-01-13T06:16:37.626Z,5.10
2018-01-13T06:19:06.822Z,5.10
2018-01-13T06:21:35.050Z,5.10
2018-01-13T06:24:03.344Z,5.00
2018-01-13T06:26:32.030Z,5.10
2018-01-13T06:29:00.970Z,5.10
2018-01-13T06:31:29.237Z,5.20
2018-01-13T06:33:57.473Z,5.20
2018-01-13T06:36:25.747Z,5.20
2018-01-13T06:38:54.015Z,5.30
2018-01-13T06:41:22.258Z,5.30
2018-01-13T06:43:51.649Z,5.30
2018-01-13T06:46:19.907Z,5.30
2018-01-13T06:48:48.166Z,5.30
2018-01-13T06:51:16.435Z,5.40
2018-01-13T06:53:44.671Z,5.40
2018-01-13T06:56:13.693Z,5.50
2018-01-13T06:58:41.929Z,5.50
2018-01-13T07:01:10.957Z,5.40
2018-01-13T07:03:39.256Z,5.40
2018-01-13T07:06:07.946Z,5.40
2018-01-13T07:08:36.763Z,5.40
2018-01-13T07:11:05.018Z,5.40
2018-01-13T07:13:33.273Z,5.40
2018-01-13T07:16:01.546Z,5.40
2018-01-13T07:18:29.849Z,5.50
2018-01-13T07:20:58.127Z,5.50
2018-01-13T07:23:26.366Z,5.60
2018-01-13T07:25:55.403Z,5.80
2018-01-13T07:28:23.629Z,5.80
2018-01-13T07:30:52.700Z,5.90
2018-01-13T07:33:20.952Z,5.90
2018-01-13T07:35:49.216Z,5.90
2018-01-13T07:38:17.463Z,5.90
2018-01-13T07:40:46.457Z,6.00
2018-01-13T07:43:15.505Z,6.10
2018-01-13T07:45:43.822Z,6.10
2018-01-13T07:48:12.072Z,6.10
2018-01-13T07:50:40.314Z,6.00
2018-01-13T07:53:08.702Z,6.10
2018-01-13T07:55:37.066Z,6.20
2018-01-13T07:58:05.316Z,6.20
2018-01-13T08:00:34.359Z,6.30
2018-01-13T08:03:02.668Z,6.30
2018-01-13T08:05:30.932Z,6.20
2018-01-13T08:07:59.161Z,6.20
2018-01-13T08:10:27.430Z,6.30
2018-01-13T08:12:56.453Z,6.40
2018-01-13T08:15:24.746Z,6.40
2018-01-13T08:17:53.025Z,6.40
2018-01-13T08:20:21.296Z,6.40
2018-01-13T08:22:49.533Z,6.30
2018-01-13T08:25:18.537Z,6.50
2018-01-13T08:27:47.855Z,6.50
2018-01-13T08:30:16.092Z,6.50
2018-01-13T08:32:45.127Z,6.50
2018-01-13T08:35:13.411Z,6.50
2018-01-13T08:37:41.671Z,6.60
2018-01-13T08:40:09.929Z,6.60
2018-01-13T08:42:39.028Z,6.60
2018-01-13T08:45:07.698Z,6.60
2018-01-13T08:47:35.927Z,6.70
2018-01-13T08:50:04.218Z,6.70
2018-01-13T08:52:32.441Z,6.70
2018-01-13T08:55:02.475Z,6.60
2018-01-13T08:57:31.535Z,6.60
2018-01-13T09:00:01.305Z,6.70
2018-01-13T09:02:30.054Z,6.70
2018-01-13T09:04:59.075Z,6.70
2018-01-13T09:07:28.083Z,6.60
2018-01-13T09:09:56.352Z,6.60
2018-01-13T09:12:24.629Z,6.60
2018-01-13T09:14:52.882Z,6.60
2018-01-13T09:17:22.818Z,6.70
2018-01-13T09:19:51.788Z,6.70
2018-01-13T09:22:20.805Z,6.70
2018-01-13T09:24:49.083Z,6.70
2018-01-13T09:27:17.738Z,6.60
2018-01-13T09:29:46.081Z,6.50
2018-01-13T09:32:14.319Z,6.50
2018-01-13T09:34:42.567Z,6.50
2018-01-13T09:37:11.649Z,6.60
2018-01-13T09:39:39.898Z,6.60
2018-01-13T09:42:08.159Z,6.70
2018-01-13T09:44:36.414Z,6.80
2018-01-13T09:47:05.457Z,6.80
2018-01-13T09:49:33.715Z,6.80
2018-01-13T09:52:02.075Z,6.70
2018-01-13T09:54:31.854Z,6.90
2018-01-13T09:57:00.134Z,6.80
2018-01-13T09:59:28.443Z,7.00
2018-01-13T10:01:56.670Z,7.00
2018-01-13T10:04:25.002Z,7.00
2018-01-13T10:06:53.995Z,6.90
2018-01-13T10:09:23.021Z,6.90
2018-01-13T10:11:51.313Z,6.90
2018-01-13T10:14:19.605Z,7.00
2018-01-13T10:16:49.374Z,7.20
2018-01-13T10:19:17.616Z,7.20
2018-01-13T10:21:45.908Z,7.30
2018-01-13T10:24:15.046Z,7.30
2018-01-13T10:26:43.309Z,7.20
2018-01-13T10:29:12.379Z,7.20
2018-01-13T10:31:41.408Z,7.30
2018-01-13T10:34:09.682Z,7.20
2018-01-13T10:36:37.938Z,7.30
2018-01-13T10:39:06.264Z,7.30
2018-01-13T10:41:34.518Z,7.20
2018-01-13T10:44:02.795Z,7.20
2018-01-13T10:46:31.064Z,7.10
2018-01-13T10:48:59.344Z,7.20
2018-01-13T10:51:27.638Z,7.30
2018-01-13T10:53:55.964Z,7.30
2018-01-13T10:56:24.214Z,7.40
2018-01-13T10:58:52.523Z,7.30
2018-01-13T11:01:21.572Z,7.40
2018-01-13T11:03:49.824Z,7.40
2018-01-13T11:06:19.763Z,7.40
2018-01-13T11:08:47.992Z,7.40
2018-01-13T11:11:16.349Z,7.50
2018-01-13T11:13:44.615Z,7.50
2018-01-13T11:16:12.978Z,7.40
2018-01-13T11:18:41.253Z,7.30
2018-01-13T11:21:09.572Z,7.30
2018-01-13T11:23:37.816Z,7.30
2018-01-13T11:26:06.516Z,7.30
2018-01-13T11:28:34.852Z,7.40
2018-01-13T11:31:03.176Z,7.20
2018-01-13T11:33:31.431Z,7.30
2018-01-13T11:35:59.760Z,7.40
2018-01-13T11:38:28.773Z,7.60
2018-01-13T11:40:57.021Z,7.60
2018-01-13T11:43:26.529Z,7.80
2018-01-13T11:45:55.093Z,7.80
2018-01-13T11:48:23.396Z,7.70
2018-01-13T11:50:52.428Z,7.90
2018-01-13T11:53:20.690Z,7.90
2018-01-13T11:55:49.716Z,7.90
2018-01-13T11:58:18.001Z,7.90
2018-01-13T12:00:47.425Z,7.90
2018-01-13T12:03:16.726Z,7.90
2018-01-13T12:05:45.085Z,7.90
2018-01-13T12:08:13.330Z,8.00
2018-01-13T12:10:41.721Z,8.00
2018-01-13T12:13:09.993Z,8.00
2018-01-13T12:15:38.301Z,7.90
2018-01-13T12:18:06.556Z,7.90
2018-01-13T12:20:34.797Z,7.90
2018-01-13T12:23:03.114Z,7.80
2018-01-13T12:25:31.346Z,7.80
2018-01-13T12:28:00.415Z,7.90
2018-01-13T12:30:28.705Z,7.80
2018-01-13T12:32:56.949Z,7.90
2018-01-13T12:35:25.213Z,7.90
2018-01-13T12:37:53.499Z,7.90
2018-01-13T12:40:21.752Z,8.00
2018-01-13T12:42:50.010Z,8.00
2018-01-13T12:45:19.087Z,8.00
2018-01-13T12:47:47.363Z,8.00
2018-01-13T12:50:15.648Z,8.00
2018-01-13T12:52:44.024Z,7.90
2018-01-13T12:55:12.870Z,8.10
2018-01-13T12:57:41.413Z,8.20
2018-01-13T13:00:09.620Z,8.10
2018-01-13T13:02:37.890Z,8.00
2018-01-13T13:05:06.130Z,7.90
2018-01-13T13:07:35.143Z,7.80
2018-01-13T13:10:04.100Z,7.80
2018-01-13T13:12:32.397Z,7.80
2018-01-13T13:15:01.443Z,7.90
2018-01-13T13:17:30.067Z,7.80
2018-01-13T13:19:58.305Z,7.90
2018-01-13T13:22:26.615Z,8.00
2018-01-13T13:24:54.921Z,8.00
2018-01-13T13:27:23.182Z,8.00
2018-01-13T13:29:51.406Z,7.90
2018-01-13T13:32:19.708Z,7.80
2018-01-13T13:34:47.940Z,7.80
2018-01-13T13:37:17.195Z,7.90
2018-01-13T13:39:45.458Z,7.90
2018-01-13T13:42:13.780Z,7.80
2018-01-13T13:44:42.029Z,7.80
2018-01-13T13:47:10.317Z,7.90
2018-01-13T13:49:38.618Z,7.80
2018-01-13T13:52:07.654Z,7.90
2018-01-13T13:54:35.932Z,7.90
2018-01-13T13:57:04.216Z,7.90
2018-01-13T13:59:32.537Z,7.80
2018-01-13T14:02:00.781Z,7.80
2018-01-13T14:04:29.067Z,7.70
2018-01-13T14:06:57.290Z,7.70
2018-01-13T14:09:25.592Z,7.70
2018-01-13T14:11:54.927Z,7.70
2018-01-13T14:14:23.207Z,7.70
2018-01-13T14:16:51.832Z,7.70
2018-01-13T14:19:20.864Z,7.70
2018-01-13T14:21:49.147Z,7.60
2018-01-13T14:24:17.598Z,7.60
2018-01-13T14:26:46.627Z,7.60
2018-01-13T14:29:14.896Z,7.60
2018-01-13T14:31:43.167Z,7.60
2018-01-13T14:34:11.424Z,7.60
2018-01-13T14:36:41.252Z,7.60
2018-01-13T14:39:09.561Z,7.60
2018-01-13T14:41:37.802Z,7.50
2018-01-13T14:44:07.488Z,7.40
2018-01-13T14:46:35.842Z,7.40
2018-01-13T14:49:04.100Z,7.30
2018-01-13T14:51:32.390Z,7.30
2018-01-13T14:54:01.268Z,7.20
2018-01-13T14:56:29.559Z,7.20
2018-01-13T14:58:58.041Z,7.20
2018-01-13T15:01:26.334Z,7.20
2018-01-13T15:03:54.587Z,7.20
2018-01-13T15:06:22.892Z,7.20
2018-01-13T15:08:51.148Z,7.10
2018-01-13T15:11:21.097Z,7.00
2018-01-13T15:13:49.371Z,7.00
2018-01-13T15:16:17.677Z,7.00
2018-01-13T15:18:46.009Z,6.90
2018-01-13T15:21:14.286Z,6.80
2018-01-13T15:23:42.682Z,6.70
2018-01-13T15:26:10.981Z,6.70
2018-01-13T15:28:39.321Z,6.70
2018-01-13T15:31:07.623Z,6.70
2018-01-13T15:33:36.659Z,6.60
2018-01-13T15:36:04.957Z,6.60
2018-01-13T15:38:33.231Z,6.50
2018-01-13T15:41:01.568Z,6.50
2018-01-13T15:43:30.574Z,6.30
2018-01-13T15:45:58.919Z,6.30
2018-01-13T15:48:27.982Z,6.20
2018-01-13T15:50:57.601Z,6.10
2018-01-13T15:53:25.831Z,6.10
2018-01-13T15:55:54.133Z,6.00
2018-01-13T15:58:22.389Z,6.00
2018-01-13T16:00:50.719Z,6.00
2018-01-13T16:03:19.022Z,5.90
2018-01-13T16:05:48.124Z,5.90
2018-01-13T16:08:17.161Z,5.80
2018-01-13T16:10:45.460Z,5.90
2018-01-13T16:13:13.752Z,5.90
2018-01-13T16:15:42.057Z,5.80
2018-01-13T16:18:11.080Z,5.80
2018-01-13T16:20:39.412Z,5.70
2018-01-13T16:23:08.787Z,5.70
2018-01-13T16:25:38.582Z,5.70
2018-01-13T16:28:06.960Z,5.70
2018-01-13T16:30:35.208Z,5.70
2018-01-13T16:33:03.556Z,5.70
2018-01-13T16:35:31.812Z,5.70
2018-01-13T16:38:00.205Z,5.60
2018-01-13T16:40:28.480Z,5.60
2018-01-13T16:42:56.882Z,5.70
2018-01-13T16:45:25.960Z,5.70
2018-01-13T16:47:54.184Z,5.70
2018-01-13T16:50:22.504Z,5.70
2018-01-13T16:52:50.811Z,5.80
2018-01-13T16:55:19.105Z,5.90
2018-01-13T16:57:48.134Z,5.90
2018-01-13T17:00:16.443Z,5.90
2018-01-13T17:02:45.503Z,5.90
2018-01-13T17:05:15.550Z,5.90
2018-01-13T17:07:43.860Z,5.90
2018-01-13T17:10:12.892Z,6.00
2018-01-13T17:12:42.100Z,6.00
2018-01-13T17:15:10.404Z,5.90
2018-01-13T17:17:38.689Z,5.80
2018-01-13T17:20:07.107Z,5.80
2018-01-13T17:22:35.403Z,5.80
2018-01-13T17:25:03.688Z,5.80
2018-01-13T17:27:31.950Z,5.80
2018-01-13T17:30:00.230Z,5.80
2018-01-13T17:32:28.523Z,5.80
2018-01-13T17:35:06.753Z,5.80
2018-01-13T17:37:35.032Z,5.80
2018-01-13T17:40:03.324Z,5.80
2018-01-13T17:42:31.574Z,5.80
2018-01-13T17:44:59.866Z,5.70
2018-01-13T17:47:28.164Z,5.80
2018-01-13T17:49:58.254Z,5.80
2018-01-13T17:52:26.563Z,5.80
2018-01-13T17:54:54.825Z,5.80
2018-01-13T17:57:23.099Z,5.70
2018-01-13T17:59:53.230Z,5.70
2018-01-13T18:02:21.514Z,5.70
2018-01-13T18:04:51.289Z,5.60
2018-01-13T18:07:19.591Z,5.60
2018-01-13T18:09:47.926Z,5.60
2018-01-13T18:12:16.210Z,5.70
2018-01-13T18:14:44.625Z,5.70
2018-01-13T18:17:12.881Z,5.70
2018-01-13T18:19:41.163Z,5.70
2018-01-13T18:22:09.428Z,5.60
2018-01-13T18:24:38.570Z,5.60
2018-01-13T18:27:06.826Z,5.50
2018-01-13T18:29:35.089Z,5.50
2018-01-13T18:32:03.383Z,5.50
2018-01-13T18:34:31.661Z,5.50
2018-01-13T18:36:59.914Z,5.50
2018-01-13T18:39:28.275Z,5.50
2018-01-13T18:41:57.289Z,5.50
2018-01-13T18:44:25.557Z,5.50
2018-01-13T18:46:53.873Z,5.60
2018-01-13T18:49:22.112Z,5.60
2018-01-13T18:51:50.422Z,5.50
2018-01-13T18:54:18.716Z,5.50
2018-01-13T18:56:46.962Z,5.50
2018-01-13T18:59:16.136Z,5.50
2018-01-13T19:01:44.485Z,5.50
2018-01-13T19:04:13.513Z,5.50
2018-01-13T19:06:41.788Z,5.50
2018-01-13T19:09:10.042Z,5.60
2018-01-13T19:11:39.430Z,5.50
2018-01-13T19:14:08.463Z,5.40
2018-01-13T19:16:37.505Z,5.40
2018-01-13T19:19:05.756Z,5.40
2018-01-13T19:21:34.911Z,5.50
2018-01-13T19:24:04.000Z,5.50
2018-01-13T19:26:33.417Z,5.50
2018-01-13T19:29:01.736Z,5.50
2018-01-13T19:31:29.987Z,5.50
2018-01-13T19:33:58.314Z,5.50
2018-01-13T19:36:26.568Z,5.40
2018-01-13T19:38:54.917Z,5.30
2018-01-13T19:41:23.185Z,5.30
2018-01-13T19:43:51.435Z,5.30
2018-01-13T19:46:19.761Z,5.30
2018-01-13T19:48:48.834Z,5.30
2018-01-13T19:51:17.912Z,5.30
2018-01-13T19:53:47.118Z,5.30
2018-01-13T19:56:15.543Z,5.30
2018-01-13T19:58:44.677Z,5.30
2018-01-13T20:01:13.025Z,5.40
2018-01-13T20:03:41.447Z,5.30
2018-01-13T20:06:09.736Z,5.30
2018-01-13T20:08:38.927Z,5.30
2018-01-13T20:11:07.215Z,5.30
2018-01-13T20:13:36.227Z,5.20
2018-01-13T20:16:04.998Z,5.20
2018-01-13T20:18:34.042Z,5.20
2018-01-13T20:21:03.084Z,5.20
2018-01-13T20:23:32.183Z,5.20
2018-01-13T20:26:00.461Z,5.20
2018-01-13T20:28:29.479Z,5.10
2018-01-13T20:30:58.186Z,5.10
2018-01-13T20:33:26.430Z,5.10
2018-01-13T20:35:55.461Z,5.00
2018-01-13T20:38:23.874Z,5.00
2018-01-13T20:40:53.555Z,4.90
2018-01-13T20:43:21.824Z,4.90
2018-01-13T20:45:51.082Z,4.90
2018-01-13T20:48:19.382Z,5.00
2018-01-13T20:50:49.302Z,5.00
2018-01-13T20:53:17.756Z,5.00
2018-01-13T20:55:46.801Z,5.00
2018-01-13T20:58:15.501Z,5.00
2018-01-13T21:00:44.042Z,5.00
2018-01-13T21:03:12.536Z,5.00
2018-01-13T21:05:40.835Z,5.00
2018-01-13T21:08:09.111Z,4.90
2018-01-13T21:10:38.762Z,4.90
2018-01-13T21:13:07.252Z,4.90
2018-01-13T21:15:35.780Z,4.90
2018-01-13T21:18:04.089Z,4.90
2018-01-13T21:20:33.973Z,4.80
2018-01-13T21:23:02.405Z,4.80
2018-01-13T21:25:31.020Z,4.90
2018-01-13T21:28:00.615Z,4.90
2018-01-13T21:30:30.033Z,4.90
2018-01-13T21:32:59.114Z,4.90
2018-01-13T21:35:28.791Z,4.80
2018-01-13T21:37:57.078Z,4.80
2018-01-13T21:40:26.845Z,4.70
2018-01-13T21:42:55.256Z,4.70
2018-01-13T21:45:24.167Z,4.70
2018-01-13T21:47:52.417Z,4.70
2018-01-13T21:50:20.740Z,4.70
2018-01-13T21:52:49.524Z,4.70
2018-01-13T21:55:17.811Z,4.70
2018-01-13T21:57:46.147Z,4.60
2018-01-13T22:00:14.405Z,4.60
2018-01-13T22:02:42.699Z,4.60
2018-01-13T22:05:11.005Z,4.60
2018-01-13T22:07:39.819Z,4.60
2018-01-13T22:10:08.117Z,4.60
2018-01-13T22:12:37.075Z,4.60
2018-01-13T22:15:06.800Z,4.60
2018-01-13T22:17:35.999Z,4.50
2018-01-13T22:20:05.727Z,4.70
2018-01-13T22:22:34.251Z,4.60
2018-01-13T22:25:02.529Z,4.60
2018-01-13T22:27:30.858Z,4.60
2018-01-13T22:29:59.134Z,4.50
2018-01-13T22:32:28.163Z,4.50
2018-01-13T22:34:56.408Z,4.50
2018-01-13T22:37:25.644Z,4.60
2018-01-13T22:39:53.932Z,4.70
2018-01-13T22:42:23.224Z,4.70
2018-01-13T22:44:51.457Z,4.60
2018-01-13T22:47:20.506Z,4.60
2018-01-13T22:49:48.788Z,4.60
2018-01-13T22:52:17.151Z,4.60
2018-01-13T22:54:45.464Z,4.60
2018-01-13T22:57:13.777Z,4.60
2018-01-13T22:59:42.770Z,4.60
2018-01-13T23:02:11.796Z,4.70
2018-01-13T23:04:40.076Z,4.70
2018-01-13T23:07:08.351Z,4.70
2018-01-13T23:09:36.613Z,4.80
2018-01-13T23:12:04.870Z,4.80
2018-01-13T23:14:34.048Z,4.80
2018-01-13T23:17:02.389Z,4.80
2018-01-13T23:19:30.662Z,4.80
2018-01-13T23:21:58.958Z,4.80
2018-01-13T23:24:27.453Z,4.90
2018-01-13T23:26:57.290Z,4.80
2018-01-13T23:29:26.390Z,4.80
2018-01-13T23:31:55.467Z,4.90
2018-01-13T23:34:24.011Z,4.80
2018-01-13T23:36:52.342Z,4.90
2018-01-13T23:39:21.381Z,4.80
2018-01-13T23:41:49.653Z,4.80
2018-01-13T23:44:17.944Z,4.80
2018-01-13T23:46:46.188Z,4.80
2018-01-13T23:49:15.231Z,4.80
2018-01-13T23:51:43.491Z,4.80
2018-01-13T23:54:11.740Z,4.60
2018-01-13T23:56:40.745Z,4.60
2018-01-13T23:59:09.028Z,4.50
